sensor_id;sensor_type;location;lat;lon;timestamp;pressure;altitude;pressure_sealevel;temperature;humidity
34124;BME280;13153;52.316;21.166;2023-03-25T00:02:09;99177.31;;;16.57;58.08
34124;BME280;13153;52.316;21.166;2023-03-25T00:04:36;99174.69;;;16.56;58.17
34124;BME280;13153;52.316;21.166;2023-03-25T00:07:04;99163.25;;;16.52;58.04
34124;BME280;13153;52.316;21.166;2023-03-25T00:09:30;99162.41;;;16.48;58.37
34124;BME280;13153;52.316;21.166;2023-03-25T00:11:55;99172.22;;;16.45;58.21
34124;BME280;13153;52.316;21.166;2023-03-25T00:14:21;99174.06;;;16.40;58.29
34124;BME280;13153;52.316;21.166;2023-03-25T00:16:49;99170.66;;;16.32;58.45
34124;BME280;13153;52.316;21.166;2023-03-25T00:19:18;99167.22;;;16.25;58.58
34124;BME280;13153;52.316;21.166;2023-03-25T00:21:47;99166.41;;;16.20;58.51
34124;BME280;13153;52.316;21.166;2023-03-25T00:24:16;99167.41;;;16.16;58.70
34124;BME280;13153;52.316;21.166;2023-03-25T00:26:46;99157.69;;;16.13;59.38
34124;BME280;13153;52.316;21.166;2023-03-25T00:29:15;99146.25;;;16.10;58.83
34124;BME280;13153;52.316;21.166;2023-03-25T00:31:42;99160.38;;;16.12;59.07
34124;BME280;13153;52.316;21.166;2023-03-25T00:34:08;99161.28;;;16.11;59.16
34124;BME280;13153;52.316;21.166;2023-03-25T00:36:34;99148.88;;;16.13;59.26
34124;BME280;13153;52.316;21.166;2023-03-25T00:39:03;99156.72;;;16.17;59.22
34124;BME280;13153;52.316;21.166;2023-03-25T00:41:30;99169.16;;;16.17;59.02
34124;BME280;13153;52.316;21.166;2023-03-25T00:44:00;99177.16;;;16.14;59.27
34124;BME280;13153;52.316;21.166;2023-03-25T00:46:29;99164.78;;;16.13;59.36
34124;BME280;13153;52.316;21.166;2023-03-25T00:48:56;99157.69;;;16.15;59.25
34124;BME280;13153;52.316;21.166;2023-03-25T00:51:24;99167.44;;;16.13;59.36
34124;BME280;13153;52.316;21.166;2023-03-25T00:53:59;99167.47;;;16.11;59.70
34124;BME280;13153;52.316;21.166;2023-03-25T00:56:26;99171.84;;;16.14;59.22
34124;BME280;13153;52.316;21.166;2023-03-25T00:58:52;99165.63;;;16.15;59.36
34124;BME280;13153;52.316;21.166;2023-03-25T01:01:22;99172.75;;;16.13;59.27
34124;BME280;13153;52.316;21.166;2023-03-25T01:03:53;99175.41;;;16.13;59.08
34124;BME280;13153;52.316;21.166;2023-03-25T01:06:26;99169.25;;;16.09;59.11
34124;BME280;13153;52.316;21.166;2023-03-25T01:08:59;99168.38;;;16.09;59.35
34124;BME280;13153;52.316;21.166;2023-03-25T01:11:28;99165.72;;;16.09;59.26
34124;BME280;13153;52.316;21.166;2023-03-25T01:13:56;99167.50;;;16.08;59.17
34124;BME280;13153;52.316;21.166;2023-03-25T01:16:24;99157.88;;;16.03;59.24
34124;BME280;13153;52.316;21.166;2023-03-25T01:18:50;99167.59;;;16.02;59.26
34124;BME280;13153;52.316;21.166;2023-03-25T01:21:17;99164.09;;;16.00;59.20
34124;BME280;13153;52.316;21.166;2023-03-25T01:23:43;99169.41;;;15.99;59.12
34124;BME280;13153;52.316;21.166;2023-03-25T01:26:09;99169.47;;;15.96;59.32
34124;BME280;13153;52.316;21.166;2023-03-25T01:28:35;99167.72;;;15.95;59.02
34124;BME280;13153;52.316;21.166;2023-03-25T01:31:04;99166.84;;;15.94;59.20
34124;BME280;13153;52.316;21.166;2023-03-25T01:33:31;99161.56;;;15.93;59.38
34124;BME280;13153;52.316;21.166;2023-03-25T01:35:58;99159.81;;;15.92;58.86
34124;BME280;13153;52.316;21.166;2023-03-25T01:38:24;99161.63;;;15.88;58.96
34124;BME280;13153;52.316;21.166;2023-03-25T01:40:52;99169.59;;;15.87;58.80
34124;BME280;13153;52.316;21.166;2023-03-25T01:43:20;99157.28;;;15.82;58.71
34124;BME280;13153;52.316;21.166;2023-03-25T01:45:46;99160.81;;;15.81;58.72
34124;BME280;13153;52.316;21.166;2023-03-25T01:51:13;99152.09;;;15.73;58.84
34124;BME280;13153;52.316;21.166;2023-03-25T01:53:42;99153.03;;;15.69;58.74
34124;BME280;13153;52.316;21.166;2023-03-25T01:56:12;99149.56;;;15.64;58.78
34124;BME280;13153;52.316;21.166;2023-03-25T01:58:42;99150.50;;;15.60;58.82
34124;BME280;13153;52.316;21.166;2023-03-25T02:01:08;99144.41;;;15.55;59.14
34124;BME280;13153;52.316;21.166;2023-03-25T02:03:41;99148.91;;;15.48;59.22
34124;BME280;13153;52.316;21.166;2023-03-25T02:06:23;99152.47;;;15.46;58.94
34124;BME280;13153;52.316;21.166;2023-03-25T02:08:53;99150.78;;;15.40;58.96
34124;BME280;13153;52.316;21.166;2023-03-25T02:11:21;99157.03;;;15.35;58.96
34124;BME280;13153;52.316;21.166;2023-03-25T02:13:50;99165.06;;;15.27;59.20
34124;BME280;13153;52.316;21.166;2023-03-25T02:16:44;99161.56;;;15.24;59.23
34124;BME280;13153;52.316;21.166;2023-03-25T02:19:58;99176.63;;;15.22;59.38
34124;BME280;13153;52.316;21.166;2023-03-25T02:39:40;99154.81;;;14.98;59.31
34124;BME280;13153;52.316;21.166;2023-03-25T02:43:08;99154.72;;;15.06;59.12
34124;BME280;13153;52.316;21.166;2023-03-25T02:45:34;99142.25;;;15.14;58.49
34124;BME280;13153;52.316;21.166;2023-03-25T02:48:30;99136.94;;;15.15;58.50
34124;BME280;13153;52.316;21.166;2023-03-25T02:51:05;99149.34;;;15.12;58.51
34124;BME280;13153;52.316;21.166;2023-03-25T02:53:36;99155.56;;;15.09;58.65
34124;BME280;13153;52.316;21.166;2023-03-25T02:56:08;99160.00;;;15.07;58.27
34124;BME280;13153;52.316;21.166;2023-03-25T02:58:38;99160.88;;;15.06;58.26
34124;BME280;13153;52.316;21.166;2023-03-25T03:01:05;99165.38;;;15.01;58.42
34124;BME280;13153;52.316;21.166;2023-03-25T03:03:31;99163.63;;;15.00;58.59
34124;BME280;13153;52.316;21.166;2023-03-25T03:05:59;99163.63;;;15.00;58.57
34124;BME280;13153;52.316;21.166;2023-03-25T03:11:14;99166.31;;;14.97;58.60
34124;BME280;13153;52.316;21.166;2023-03-25T03:24:38;99163.75;;;14.88;59.08
34124;BME280;13153;52.316;21.166;2023-03-25T03:27:33;99178.72;;;14.94;59.01
34124;BME280;13153;52.316;21.166;2023-03-25T03:33:36;99176.91;;;14.97;58.71
34124;BME280;13153;52.316;21.166;2023-03-25T03:36:16;99180.44;;;14.98;59.01
34124;BME280;13153;52.316;21.166;2023-03-25T03:39:02;99183.97;;;14.97;58.48
34124;BME280;13153;52.316;21.166;2023-03-25T03:41:35;99193.69;;;14.98;58.65
34124;BME280;13153;52.316;21.166;2023-03-25T03:44:19;99198.97;;;14.99;58.46
34124;BME280;13153;52.316;21.166;2023-03-25T03:46:54;99191.91;;;15.00;58.56
34124;BME280;13153;52.316;21.166;2023-03-25T03:49:30;99178.66;;;14.98;58.91
34124;BME280;13153;52.316;21.166;2023-03-25T03:52:19;99173.38;;;14.98;58.80
34124;BME280;13153;52.316;21.166;2023-03-25T03:54:56;99166.34;;;14.96;58.60
34124;BME280;13153;52.316;21.166;2023-03-25T03:57:49;99161.03;;;14.96;58.59
34124;BME280;13153;52.316;21.166;2023-03-25T04:00:23;99170.78;;;14.92;58.35
34124;BME280;13153;52.316;21.166;2023-03-25T04:03:30;99176.13;;;14.88;58.63
34124;BME280;13153;52.316;21.166;2023-03-25T04:09:02;99185.94;;;14.76;58.87
34124;BME280;13153;52.316;21.166;2023-03-25T04:11:49;99188.63;;;14.72;58.90
34124;BME280;13153;52.316;21.166;2023-03-25T04:14:17;99179.84;;;14.68;58.81
34124;BME280;13153;52.316;21.166;2023-03-25T04:16:44;99187.78;;;14.70;58.84
34124;BME280;13153;52.316;21.166;2023-03-25T04:19:11;99194.84;;;14.68;58.54
34124;BME280;13153;52.316;21.166;2023-03-25T04:21:44;99188.78;;;14.53;59.04
34124;BME280;13153;52.316;21.166;2023-03-25T04:24:11;99193.16;;;14.59;58.98
34124;BME280;13153;52.316;21.166;2023-03-25T04:26:41;99194.94;;;14.57;58.61
34124;BME280;13153;52.316;21.166;2023-03-25T04:29:08;99198.47;;;14.58;59.02
34124;BME280;13153;52.316;21.166;2023-03-25T04:31:35;99203.75;;;14.59;59.16
34124;BME280;13153;52.316;21.166;2023-03-25T04:34:02;99202.88;;;14.59;59.13
34124;BME280;13153;52.316;21.166;2023-03-25T04:36:29;99196.69;;;14.60;59.03
34124;BME280;13153;52.316;21.166;2023-03-25T04:39:03;99196.69;;;14.58;59.14
34124;BME280;13153;52.316;21.166;2023-03-25T04:41:29;99208.13;;;14.62;59.29
34124;BME280;13153;52.316;21.166;2023-03-25T04:43:56;99208.13;;;14.63;59.08
34124;BME280;13153;52.316;21.166;2023-03-25T04:46:22;99199.28;;;14.67;58.99
34124;BME280;13153;52.316;21.166;2023-03-25T04:48:48;99217.72;;;14.78;58.78
34124;BME280;13153;52.316;21.166;2023-03-25T04:51:14;99205.31;;;14.83;58.54
34124;BME280;13153;52.316;21.166;2023-03-25T04:53:41;99195.53;;;14.90;58.63
34124;BME280;13153;52.316;21.166;2023-03-25T04:56:16;99212.25;;;14.96;58.49
34124;BME280;13153;52.316;21.166;2023-03-25T04:58:42;99203.34;;;15.02;58.02
34124;BME280;13153;52.316;21.166;2023-03-25T05:01:26;99200.53;;;15.14;58.43
34124;BME280;13153;52.316;21.166;2023-03-25T05:04:03;99193.34;;;15.27;57.70
34124;BME280;13153;52.316;21.166;2023-03-25T05:06:32;99195.75;;;15.48;57.37
34124;BME280;13153;52.316;21.166;2023-03-25T05:09:00;99189.38;;;15.63;56.75
34124;BME280;13153;52.316;21.166;2023-03-25T05:11:31;99202.38;;;15.81;56.58
34124;BME280;13153;52.316;21.166;2023-03-25T05:13:57;99205.75;;;15.94;56.16
34124;BME280;13153;52.316;21.166;2023-03-25T05:16:22;99205.63;;;16.03;55.72
34124;BME280;13153;52.316;21.166;2023-03-25T05:18:48;99200.31;;;16.03;55.63
34124;BME280;13153;52.316;21.166;2023-03-25T05:21:15;99203.00;;;16.00;55.35
34124;BME280;13153;52.316;21.166;2023-03-25T05:23:41;99208.38;;;15.95;55.63
34124;BME280;13153;52.316;21.166;2023-03-25T05:26:08;99206.72;;;15.88;55.86
34124;BME280;13153;52.316;21.166;2023-03-25T05:28:34;99217.38;;;15.85;55.83
34124;BME280;13153;52.316;21.166;2023-03-25T05:31:00;99210.31;;;15.84;55.76
34124;BME280;13153;52.316;21.166;2023-03-25T05:33:37;99216.47;;;15.84;56.10
34124;BME280;13153;52.316;21.166;2023-03-25T05:36:11;99216.47;;;15.84;56.11
34124;BME280;13153;52.316;21.166;2023-03-25T05:38:39;99219.09;;;15.88;56.11
34124;BME280;13153;52.316;21.166;2023-03-25T05:41:13;99215.53;;;15.89;56.16
34124;BME280;13153;52.316;21.166;2023-03-25T05:43:43;99225.28;;;15.88;56.02
34124;BME280;13153;52.316;21.166;2023-03-25T05:46:17;99222.66;;;15.85;55.92
34124;BME280;13153;52.316;21.166;2023-03-25T05:48:44;99229.72;;;15.86;56.12
34124;BME280;13153;52.316;21.166;2023-03-25T05:51:16;99236.78;;;15.87;56.11
34124;BME280;13153;52.316;21.166;2023-03-25T05:53:44;99238.59;;;15.85;56.01
34124;BME280;13153;52.316;21.166;2023-03-25T05:56:18;99228.84;;;15.85;56.33
34124;BME280;13153;52.316;21.166;2023-03-25T05:58:48;99224.38;;;15.89;56.12
34124;BME280;13153;52.316;21.166;2023-03-25T06:01:17;99225.28;;;15.88;56.23
34124;BME280;13153;52.316;21.166;2023-03-25T06:03:44;99235.00;;;15.88;56.54
34124;BME280;13153;52.316;21.166;2023-03-25T06:06:14;99235.81;;;15.93;56.32
34124;BME280;13153;52.316;21.166;2023-03-25T06:08:45;99237.53;;;15.97;55.92
34124;BME280;13153;52.316;21.166;2023-03-25T06:11:12;99235.75;;;15.99;56.45
34124;BME280;13153;52.316;21.166;2023-03-25T06:13:40;99237.44;;;16.04;56.21
34124;BME280;13153;52.316;21.166;2023-03-25T06:16:07;99236.47;;;16.10;55.91
34124;BME280;13153;52.316;21.166;2023-03-25T06:18:37;99233.78;;;16.13;55.63
34124;BME280;13153;52.316;21.166;2023-03-25T06:21:03;99238.97;;;16.19;55.98
34124;BME280;13153;52.316;21.166;2023-03-25T06:23:31;99239.72;;;16.27;55.71
34124;BME280;13153;52.316;21.166;2023-03-25T06:26:00;99239.63;;;16.35;55.46
34124;BME280;13153;52.316;21.166;2023-03-25T06:28:26;99238.63;;;16.42;55.37
34124;BME280;13153;52.316;21.166;2023-03-25T06:30:52;99232.31;;;16.49;55.19
34124;BME280;13153;52.316;21.166;2023-03-25T06:33:18;99231.31;;;16.58;54.86
34124;BME280;13153;52.316;21.166;2023-03-25T06:35:47;99228.53;;;16.64;54.66
34124;BME280;13153;52.316;21.166;2023-03-25T06:38:20;99231.00;;;16.76;54.49
34124;BME280;13153;52.316;21.166;2023-03-25T06:40:46;99222.75;;;16.93;54.69
34124;BME280;13153;52.316;21.166;2023-03-25T06:43:12;99233.00;;;17.12;55.18
34124;BME280;13153;52.316;21.166;2023-03-25T06:45:39;99237.91;;;17.34;54.09
34124;BME280;13153;52.316;21.166;2023-03-25T06:48:05;99232.94;;;17.60;53.24
34124;BME280;13153;52.316;21.166;2023-03-25T06:50:31;99235.09;;;17.86;52.53
34124;BME280;13153;52.316;21.166;2023-03-25T06:52:57;99247.88;;;18.09;51.64
34124;BME280;13153;52.316;21.166;2023-03-25T06:55:23;99235.22;;;18.20;51.26
34124;BME280;13153;52.316;21.166;2023-03-25T06:57:49;99235.19;;;18.22;51.22
34124;BME280;13153;52.316;21.166;2023-03-25T07:00:18;99240.47;;;18.23;51.54
34124;BME280;13153;52.316;21.166;2023-03-25T07:02:47;99243.13;;;18.23;51.23
34124;BME280;13153;52.316;21.166;2023-03-25T07:05:13;99230.72;;;18.22;50.84
34124;BME280;13153;52.316;21.166;2023-03-25T07:07:39;99240.25;;;18.32;50.55
34124;BME280;13153;52.316;21.166;2023-03-25T07:10:06;99241.56;;;18.52;50.50
34124;BME280;13153;52.316;21.166;2023-03-25T07:12:33;99233.69;;;18.84;49.89
34124;BME280;13153;52.316;21.166;2023-03-25T07:15:00;99229.63;;;19.36;48.71
34124;BME280;13153;52.316;21.166;2023-03-25T07:17:26;99220.44;;;19.77;47.81
34124;BME280;13153;52.316;21.166;2023-03-25T07:19:51;99225.28;;;19.94;47.14
34124;BME280;13153;52.316;21.166;2023-03-25T07:22:17;99220.94;;;19.90;46.71
34124;BME280;13153;52.316;21.166;2023-03-25T07:24:43;99216.66;;;19.84;46.25
34124;BME280;13153;52.316;21.166;2023-03-25T07:27:11;99218.59;;;19.79;46.90
34124;BME280;13153;52.316;21.166;2023-03-25T07:29:38;99218.81;;;19.71;46.85
34124;BME280;13153;52.316;21.166;2023-03-25T07:32:05;99226.28;;;19.60;47.15
34124;BME280;13153;52.316;21.166;2023-03-25T07:34:31;99226.47;;;19.54;47.11
34124;BME280;13153;52.316;21.166;2023-03-25T07:36:57;99230.09;;;19.50;47.39
34124;BME280;13153;52.316;21.166;2023-03-25T07:39:22;99228.31;;;19.51;47.15
34124;BME280;13153;52.316;21.166;2023-03-25T07:41:51;99227.44;;;19.50;47.25
34124;BME280;13153;52.316;21.166;2023-03-25T07:44:17;99232.31;;;19.67;47.54
34124;BME280;13153;52.316;21.166;2023-03-25T07:46:46;99222.53;;;19.97;46.45
34124;BME280;13153;52.316;21.166;2023-03-25T07:49:13;99233.66;;;20.11;45.70
34124;BME280;13153;52.316;21.166;2023-03-25T07:51:40;99232.50;;;20.20;45.92
34124;BME280;13153;52.316;21.166;2023-03-25T07:54:06;99233.69;;;20.39;45.73
34124;BME280;13153;52.316;21.166;2023-03-25T07:56:33;99232.38;;;20.52;45.29
34124;BME280;13153;52.316;21.166;2023-03-25T07:58:59;99225.31;;;20.50;45.23
34124;BME280;13153;52.316;21.166;2023-03-25T08:01:25;99223.44;;;20.53;44.80
34124;BME280;13153;52.316;21.166;2023-03-25T08:03:50;99222.09;;;20.66;44.61
34124;BME280;13153;52.316;21.166;2023-03-25T08:06:16;99228.34;;;20.92;44.31
34124;BME280;13153;52.316;21.166;2023-03-25T08:08:42;99225.88;;;21.12;43.89
34124;BME280;13153;52.316;21.166;2023-03-25T08:11:08;99240.84;;;21.18;43.63
34124;BME280;13153;52.316;21.166;2023-03-25T08:13:34;99232.75;;;21.19;43.67
34124;BME280;13153;52.316;21.166;2023-03-25T08:16:00;99228.81;;;21.31;43.46
34124;BME280;13153;52.316;21.166;2023-03-25T08:18:26;99226.44;;;21.47;42.92
34124;BME280;13153;52.316;21.166;2023-03-25T08:20:52;99232.81;;;21.67;43.02
34124;BME280;13153;52.316;21.166;2023-03-25T08:23:19;99222.22;;;21.88;42.42
34124;BME280;13153;52.316;21.166;2023-03-25T08:25:47;99231.00;;;22.15;41.84
34124;BME280;13153;52.316;21.166;2023-03-25T08:28:18;99224.53;;;22.20;41.34
34124;BME280;13153;52.316;21.166;2023-03-25T08:30:50;99233.63;;;22.16;40.87
34124;BME280;13153;52.316;21.166;2023-03-25T08:33:20;99232.34;;;22.26;40.81
34124;BME280;13153;52.316;21.166;2023-03-25T08:35:46;99226.22;;;22.23;40.44
34124;BME280;13153;52.316;21.166;2023-03-25T08:38:12;99224.94;;;22.33;40.50
34124;BME280;13153;52.316;21.166;2023-03-25T08:40:41;99227.53;;;22.34;40.43
34124;BME280;13153;52.316;21.166;2023-03-25T08:43:09;99232.91;;;22.34;40.13
34124;BME280;13153;52.316;21.166;2023-03-25T08:45:35;99230.16;;;22.36;40.19
34124;BME280;13153;52.316;21.166;2023-03-25T08:48:02;99226.75;;;22.32;40.54
34124;BME280;13153;52.316;21.166;2023-03-25T08:50:29;99226.06;;;22.49;40.43
34124;BME280;13153;52.316;21.166;2023-03-25T08:52:56;99229.84;;;22.65;39.95
34124;BME280;13153;52.316;21.166;2023-03-25T08:55:25;99221.41;;;22.74;39.98
34124;BME280;13153;52.316;21.166;2023-03-25T08:57:51;99218.31;;;22.85;39.07
34124;BME280;13153;52.316;21.166;2023-03-25T09:00:17;99219.81;;;22.92;39.37
34124;BME280;13153;52.316;21.166;2023-03-25T09:02:48;99222.50;;;22.92;39.10
34124;BME280;13153;52.316;21.166;2023-03-25T09:05:17;99221.16;;;23.02;39.19
34124;BME280;13153;52.316;21.166;2023-03-25T09:07:44;99214.16;;;23.19;39.16
34124;BME280;13153;52.316;21.166;2023-03-25T09:10:10;99213.09;;;23.23;38.21
34124;BME280;13153;52.316;21.166;2023-03-25T09:12:37;99207.00;;;23.19;38.24
34124;BME280;13153;52.316;21.166;2023-03-25T09:15:04;99203.69;;;23.13;37.78
34124;BME280;13153;52.316;21.166;2023-03-25T09:17:30;99212.41;;;23.18;38.02
34124;BME280;13153;52.316;21.166;2023-03-25T09:19:56;99214.97;;;23.21;37.41
34124;BME280;13153;52.316;21.166;2023-03-25T09:22:22;99210.28;;;23.26;38.67
34124;BME280;13153;52.316;21.166;2023-03-25T09:24:48;99211.69;;;23.34;37.90
34124;BME280;13153;52.316;21.166;2023-03-25T09:27:13;99203.22;;;23.44;37.35
34124;BME280;13153;52.316;21.166;2023-03-25T09:29:40;99207.66;;;23.45;36.61
34124;BME280;13153;52.316;21.166;2023-03-25T09:32:05;99203.75;;;23.52;36.77
34124;BME280;13153;52.316;21.166;2023-03-25T09:34:31;99200.19;;;23.51;36.54
34124;BME280;13153;52.316;21.166;2023-03-25T09:36:57;99196.19;;;23.41;36.81
34124;BME280;13153;52.316;21.166;2023-03-25T09:39:23;99192.75;;;23.37;35.84
34124;BME280;13153;52.316;21.166;2023-03-25T09:47:32;99194.13;;;22.87;37.44
34124;BME280;13153;52.316;21.166;2023-03-25T09:50:13;99189.91;;;23.01;36.78
34124;BME280;13153;52.316;21.166;2023-03-25T09:55:55;99186.09;;;23.07;36.02
34124;BME280;13153;52.316;21.166;2023-03-25T09:58:42;99189.69;;;23.06;36.67
34124;BME280;13153;52.316;21.166;2023-03-25T10:18:49;99191.75;;;22.57;37.31
34124;BME280;13153;52.316;21.166;2023-03-25T10:21:36;99185.19;;;22.64;37.32
34124;BME280;13153;52.316;21.166;2023-03-25T10:24:27;99182.31;;;22.69;37.53
34124;BME280;13153;52.316;21.166;2023-03-25T10:27:03;99181.38;;;22.70;37.79
34124;BME280;13153;52.316;21.166;2023-03-25T10:30:03;99178.56;;;22.53;37.69
34124;BME280;13153;52.316;21.166;2023-03-25T10:32:41;99194.41;;;22.37;37.94
34124;BME280;13153;52.316;21.166;2023-03-25T10:35:18;99171.69;;;22.24;37.65
34124;BME280;13153;52.316;21.166;2023-03-25T10:37:47;99168.91;;;22.27;38.23
34124;BME280;13153;52.316;21.166;2023-03-25T10:46:34;99169.16;;;22.43;38.14
34124;BME280;13153;52.316;21.166;2023-03-25T10:49:04;99168.78;;;22.52;37.93
34124;BME280;13153;52.316;21.166;2023-03-25T10:51:33;99164.84;;;22.38;37.76
34124;BME280;13153;52.316;21.166;2023-03-25T10:54:00;99164.53;;;22.24;38.00
34124;BME280;13153;52.316;21.166;2023-03-25T10:56:33;99169.19;;;22.19;38.33
34124;BME280;13153;52.316;21.166;2023-03-25T10:59:13;99160.16;;;22.22;38.93
34124;BME280;13153;52.316;21.166;2023-03-25T11:01:43;99164.22;;;22.32;38.10
34124;BME280;13153;52.316;21.166;2023-03-25T11:04:16;99153.06;;;22.43;37.65
34124;BME280;13153;52.316;21.166;2023-03-25T11:06:53;99154.63;;;22.48;38.04
34124;BME280;13153;52.316;21.166;2023-03-25T11:09:30;99154.50;;;22.51;38.39
34124;BME280;13153;52.316;21.166;2023-03-25T11:12:04;99154.50;;;22.51;37.67
34124;BME280;13153;52.316;21.166;2023-03-25T11:14:37;99156.13;;;22.54;37.34
34124;BME280;13153;52.316;21.166;2023-03-25T11:17:16;99139.41;;;22.49;37.26
34124;BME280;13153;52.316;21.166;2023-03-25T11:19:58;99138.84;;;22.40;37.35
34124;BME280;13153;52.316;21.166;2023-03-25T11:22:34;99133.94;;;22.30;37.75
34124;BME280;13153;52.316;21.166;2023-03-25T11:26:00;99142.78;;;22.32;37.80
34124;BME280;13153;52.316;21.166;2023-03-25T11:28:18;99128.56;;;22.30;38.16
34124;BME280;13153;52.316;21.166;2023-03-25T11:31:13;99125.72;;;22.34;38.00
34124;BME280;13153;52.316;21.166;2023-03-25T11:33:43;99117.66;;;22.34;37.42
34124;BME280;13153;52.316;21.166;2023-03-25T11:36:24;99122.09;;;22.35;37.05
34124;BME280;13153;52.316;21.166;2023-03-25T11:39:18;99108.00;;;22.30;36.83
34124;BME280;13153;52.316;21.166;2023-03-25T11:41:50;99100.91;;;22.29;36.34
34124;BME280;13153;52.316;21.166;2023-03-25T11:44:28;99107.50;;;22.21;36.25
34124;BME280;13153;52.316;21.166;2023-03-25T11:47:02;99092.88;;;22.07;36.24
34124;BME280;13153;52.316;21.166;2023-03-25T11:49:38;99102.41;;;21.93;36.39
34124;BME280;13153;52.316;21.166;2023-03-25T11:52:22;99099.78;;;21.91;37.20
34124;BME280;13153;52.316;21.166;2023-03-25T11:54:52;99092.06;;;21.84;36.60
34124;BME280;13153;52.316;21.166;2023-03-25T11:57:29;99092.28;;;21.78;36.39
34124;BME280;13153;52.316;21.166;2023-03-25T12:00:30;99086.81;;;21.81;36.02
34124;BME280;13153;52.316;21.166;2023-03-25T12:05:56;99083.34;;;21.55;35.49
34124;BME280;13153;52.316;21.166;2023-03-25T12:08:23;99085.97;;;21.57;36.27
34124;BME280;13153;52.316;21.166;2023-03-25T12:11:13;99079.38;;;21.65;36.69
34124;BME280;13153;52.316;21.166;2023-03-25T12:17:12;99075.25;;;21.57;35.79
34124;BME280;13153;52.316;21.166;2023-03-25T12:22:59;99072.06;;;21.47;36.12
34124;BME280;13153;52.316;21.166;2023-03-25T12:25:53;99066.59;;;21.50;36.14
34124;BME280;13153;52.316;21.166;2023-03-25T12:42:23;99035.81;;;21.62;35.58
34124;BME280;13153;52.316;21.166;2023-03-25T12:48:39;99044.00;;;21.35;36.48
34124;BME280;13153;52.316;21.166;2023-03-25T13:05:53;99030.03;;;21.04;37.97
34124;BME280;13153;52.316;21.166;2023-03-25T13:11:24;99022.06;;;21.02;38.12
34124;BME280;13153;52.316;21.166;2023-03-25T13:13:56;99020.53;;;20.95;38.35
34124;BME280;13153;52.316;21.166;2023-03-25T13:16:27;99023.28;;;20.94;38.56
34124;BME280;13153;52.316;21.166;2023-03-25T13:19:23;99017.16;;;20.90;38.89
34124;BME280;13153;52.316;21.166;2023-03-25T13:21:55;99028.09;;;20.84;38.64
34124;BME280;13153;52.316;21.166;2023-03-25T13:24:38;99014.66;;;20.86;38.75
34124;BME280;13153;52.316;21.166;2023-03-25T13:27:11;99028.44;;;20.75;38.97
34124;BME280;13153;52.316;21.166;2023-03-25T13:29:47;99040.56;;;20.60;39.35
34124;BME280;13153;52.316;21.166;2023-03-25T13:32:27;99028.78;;;20.41;41.07
34124;BME280;13153;52.316;21.166;2023-03-25T13:35:02;99036.47;;;20.24;41.97
34124;BME280;13153;52.316;21.166;2023-03-25T13:37:53;99039.88;;;20.02;43.17
34124;BME280;13153;52.316;21.166;2023-03-25T13:49:12;99016.97;;;19.41;44.61
34124;BME280;13153;52.316;21.166;2023-03-25T13:51:41;99009.78;;;19.43;45.10
34124;BME280;13153;52.316;21.166;2023-03-25T13:54:34;99014.94;;;19.49;44.54
34124;BME280;13153;52.316;21.166;2023-03-25T14:03:11;99015.31;;;19.65;45.08
34124;BME280;13153;52.316;21.166;2023-03-25T14:06:42;99008.84;;;19.72;45.10
34124;BME280;13153;52.316;21.166;2023-03-25T14:10:01;99014.88;;;19.78;45.26
34124;BME280;13153;52.316;21.166;2023-03-25T14:12:35;99011.91;;;19.88;45.36
34124;BME280;13153;52.316;21.166;2023-03-25T14:15:18;99015.19;;;19.96;46.04
34124;BME280;13153;52.316;21.166;2023-03-25T14:17:45;99014.16;;;20.00;46.01
34124;BME280;13153;52.316;21.166;2023-03-25T14:20:25;99017.56;;;20.05;45.83
34124;BME280;13153;52.316;21.166;2023-03-25T14:23:02;99019.00;;;20.15;45.73
34124;BME280;13153;52.316;21.166;2023-03-25T14:25:42;99016.03;;;20.23;45.92
34124;BME280;13153;52.316;21.166;2023-03-25T14:28:17;99001.78;;;20.22;42.45
34124;BME280;13153;52.316;21.166;2023-03-25T14:38:57;99020.13;;;20.33;41.12
34124;BME280;13153;52.316;21.166;2023-03-25T14:42:01;99007.69;;;20.32;41.31
34124;BME280;13153;52.316;21.166;2023-03-25T14:44:42;99022.75;;;20.34;41.37
34124;BME280;13153;52.316;21.166;2023-03-25T14:53:04;99020.69;;;20.18;42.07
34124;BME280;13153;52.316;21.166;2023-03-25T14:55:41;99022.53;;;20.16;42.25
34124;BME280;13153;52.316;21.166;2023-03-25T14:58:26;99023.50;;;20.13;41.73
34124;BME280;13153;52.316;21.166;2023-03-25T15:00:58;99015.69;;;20.07;41.14
34124;BME280;13153;52.316;21.166;2023-03-25T15:03:40;99009.59;;;20.03;40.96
34124;BME280;13153;52.316;21.166;2023-03-25T15:06:15;99016.63;;;20.06;40.84
34124;BME280;13153;52.316;21.166;2023-03-25T15:08:52;99018.28;;;20.10;40.76
34124;BME280;13153;52.316;21.166;2023-03-25T15:11:31;99010.25;;;20.10;40.42
34124;BME280;13153;52.316;21.166;2023-03-25T15:14:04;99019.72;;;19.94;40.54
34124;BME280;13153;52.316;21.166;2023-03-25T15:19:17;99022.00;;;19.78;41.14
34124;BME280;13153;52.316;21.166;2023-03-25T15:24:27;99037.53;;;19.65;41.40
34124;BME280;13153;52.316;21.166;2023-03-25T15:26:57;99043.19;;;19.56;41.66
34124;BME280;13153;52.316;21.166;2023-03-25T15:32:48;99043.19;;;19.27;39.26
34124;BME280;13153;52.316;21.166;2023-03-25T15:50:36;99063.06;;;18.52;41.40
34124;BME280;13153;52.316;21.166;2023-03-25T15:53:31;99066.97;;;18.40;42.19
34124;BME280;13153;52.316;21.166;2023-03-25T15:56:09;99057.56;;;18.27;43.08
34124;BME280;13153;52.316;21.166;2023-03-25T15:58:58;99057.72;;;18.21;43.44
34124;BME280;13153;52.316;21.166;2023-03-25T16:01:36;99072.19;;;18.09;43.62
34124;BME280;13153;52.316;21.166;2023-03-25T16:06:51;99071.09;;;17.82;44.79
34124;BME280;13153;52.316;21.166;2023-03-25T16:09:27;99066.81;;;17.76;45.00
34124;BME280;13153;52.316;21.166;2023-03-25T16:12:02;99059.84;;;17.71;45.42